Observations for SOUTHAMPTON WX CNTR, United Kingdom (EGHI)

EGHI 240850Z VRB03KT 9999 FEW040 18/15 Q1015
EGHI 240820Z 19005KT 150V230 9999 FEW040 18/14 Q1015
EGHI 240750Z VRB03KT 9999 FEW025 18/15 Q1015
EGHI 240720Z 17004KT 140V200 9999 FEW020 19/15 Q1015
EGHI 240650Z VRB03KT 9999 FEW020 18/15 Q1014
EGHI 240620Z VRB01KT 9000 NSC 19/15 Q1014   
EGHI 240550Z VRB01KT 9000 NSC 17/15 Q1013   
EGHI 240520Z 00000KT 9000 MIFG NSC 15/13 Q1013  
EGHI 240450Z 00000KT 9000 MIFG 14/12 Q1012  
EGHI 232120Z VRB02KT CAVOK 18/13 Q1014  
EGHI 232050Z 06003KT CAVOK 19/14 Q1013  
EGHI 232020Z VRB02KT CAVOK 19/14 Q1013  
EGHI 231950Z VRB03KT CAVOK 19/14 Q1013  
EGHI 231920Z 06004KT 020V100 CAVOK 19/14 Q1013  
EGHI 231850Z 07004KT 020V120 CAVOK 20/14 Q1013  
EGHI 231820Z 07004KT 020V110 CAVOK 20/14 Q1013  
EGHI 231750Z 07004KT 030V110 9999 FEW048 20/14 Q1013
EGHI 231720Z 06004KT 020V110 9999 FEW048 20/15 Q1013
EGHI 231650Z 04004KT 010V090 9999 FEW048 21/15 Q1014
EGHI 231620Z 06001KT 9999 FEW036 21/15 Q1014
EGHI 231550Z VRB03KT 9999 SCT036 21/15 Q1014
EGHI 231520Z VRB02KT 9999 FEW036 21/15 Q1014
EGHI 231450Z VRB02KT CAVOK 21/14 Q1014  
EGHI 231420Z 06005KT 020V130 CAVOK 21/14 Q1014  
EGHI 231350Z 08004KT 030V120 CAVOK 21/14 Q1015  
EGHI 231320Z 09005KT 020V140 CAVOK 21/13 Q1015  
EGHI 231250Z 08004KT 020V140 CAVOK 21/14 Q1015  
EGHI 231220Z 07005KT 020V140 CAVOK 21/13 Q1015  
EGHI 231150Z 07005KT 020V130 CAVOK 21/13 Q1015  
EGHI 231120Z 08004KT 020V130 CAVOK 20/13 Q1016  
EGHI 231050Z 10006KT 040V150 9999 FEW048 21/13 Q1016
EGHI 231020Z 10005KT 040V150 CAVOK 20/13 Q1016  
EGHI 230950Z 07005KT 010V120 CAVOK 20/13 Q1016  
EGHI 230920Z 07006KT 040V100 CAVOK 19/12 Q1017  
EGHI 230850Z 07005KT 020V120 CAVOK 18/12 Q1017